createdAt,value
2023-02-11T00:01:35.159Z,16.50
2023-02-11T00:04:05.015Z,16.55
2023-02-11T00:06:34.401Z,15.60
2023-02-11T00:09:03.084Z,15.32
2023-02-11T00:14:02.221Z,15.70
2023-02-11T00:16:30.867Z,16.25
2023-02-11T00:19:03.056Z,15.88
2023-02-11T00:21:31.427Z,16.90
2023-02-11T00:24:00.390Z,16.77
2023-02-11T00:26:34.750Z,16.92
2023-02-11T00:29:03.542Z,16.55
2023-02-11T00:31:33.034Z,17.13
2023-02-11T00:34:01.305Z,17.38
2023-02-11T00:36:30.548Z,18.02
2023-02-11T00:38:59.925Z,17.70
2023-02-11T00:41:29.586Z,17.77
2023-02-11T00:44:01.107Z,18.40
2023-02-11T00:46:29.904Z,17.52
2023-02-11T00:51:28.119Z,18.30
2023-02-11T00:53:57.181Z,19.40
2023-02-11T00:56:25.695Z,18.92
2023-02-11T00:58:54.061Z,18.92
2023-02-11T01:01:22.580Z,19.30
2023-02-11T01:03:52.983Z,19.27
2023-02-11T01:06:23.996Z,20.13
2023-02-11T01:08:52.177Z,20.88
2023-02-11T01:11:21.757Z,20.55
2023-02-11T01:13:50.780Z,20.55
2023-02-11T01:16:20.228Z,21.45
2023-02-11T01:18:49.013Z,20.23
2023-02-11T01:21:19.323Z,19.23
2023-02-11T01:26:17.569Z,18.85
2023-02-11T01:28:45.960Z,19.45
2023-02-11T01:31:14.529Z,20.17
2023-02-11T01:33:43.368Z,19.02
2023-02-11T01:38:40.000Z,18.77
2023-02-11T01:41:12.761Z,20.33
2023-02-11T01:43:46.596Z,19.55
2023-02-11T01:46:33.506Z,18.90
2023-02-11T01:49:10.202Z,18.38
2023-02-11T01:51:52.462Z,19.02
2023-02-11T01:54:24.653Z,18.80
2023-02-11T01:56:56.861Z,19.10
2023-02-11T01:59:51.327Z,19.67
2023-02-11T02:02:25.968Z,20.38
2023-02-11T02:05:01.419Z,19.48
2023-02-11T02:07:55.710Z,19.13
2023-02-11T02:10:27.408Z,18.40
2023-02-11T02:12:56.017Z,18.75
2023-02-11T02:18:21.162Z,17.98
2023-02-11T02:21:07.766Z,17.35
2023-02-11T02:24:11.544Z,18.23
2023-02-11T02:27:02.810Z,18.55
2023-02-11T02:29:46.370Z,18.52
2023-02-11T02:32:42.834Z,18.98
2023-02-11T02:35:25.028Z,18.35
2023-02-11T02:38:08.421Z,17.95
2023-02-11T02:41:04.226Z,17.05
2023-02-11T02:43:34.049Z,17.30
2023-02-11T02:46:17.491Z,17.20
2023-02-11T02:48:46.357Z,17.02
2023-02-11T02:54:26.879Z,17.90
2023-02-11T02:56:57.825Z,17.05
2023-02-11T03:01:05.307Z,17.23
2023-02-11T03:03:44.034Z,16.42
2023-02-11T03:09:11.916Z,16.83
2023-02-11T03:11:41.120Z,16.58
2023-02-11T03:14:16.057Z,16.73
2023-02-11T03:16:46.499Z,16.83
2023-02-11T03:19:29.307Z,17.33
2023-02-11T03:21:58.321Z,17.73
2023-02-11T03:24:33.628Z,15.30
2023-02-11T03:27:19.441Z,15.75
2023-02-11T03:29:56.518Z,16.70
2023-02-11T03:32:28.671Z,17.08
2023-02-11T03:34:56.766Z,15.75
2023-02-11T03:37:37.289Z,16.20
2023-02-11T03:40:08.030Z,16.20
2023-02-11T03:42:55.292Z,16.23
2023-02-11T03:45:26.092Z,15.98
2023-02-11T03:48:22.959Z,15.43
2023-02-11T03:50:53.787Z,15.15
2023-02-11T03:53:24.164Z,14.15
2023-02-11T03:55:55.395Z,14.82
2023-02-11T03:58:23.772Z,14.60
2023-02-11T04:00:52.205Z,14.45
2023-02-11T04:03:20.495Z,15.98
2023-02-11T04:05:49.117Z,13.65
2023-02-11T04:08:17.527Z,15.18
2023-02-11T04:10:45.748Z,14.02
2023-02-11T04:13:13.824Z,14.07
2023-02-11T04:15:42.108Z,13.00
2023-02-11T04:18:10.442Z,13.93
2023-02-11T04:20:38.626Z,13.85
2023-02-11T04:23:06.965Z,14.68
2023-02-11T04:25:35.100Z,14.32
2023-02-11T04:28:03.433Z,14.13
2023-02-11T04:30:31.705Z,14.73
2023-02-11T04:33:00.129Z,14.05
2023-02-11T04:35:28.480Z,13.48
2023-02-11T04:37:56.669Z,14.55
2023-02-11T04:40:24.885Z,14.73
2023-02-11T04:42:53.203Z,13.07
2023-02-11T04:45:21.391Z,12.85
2023-02-11T04:47:49.634Z,13.57
2023-02-11T04:50:18.302Z,14.60
2023-02-11T04:52:46.526Z,13.40
2023-02-11T04:55:14.944Z,13.45
2023-02-11T04:57:43.273Z,12.60
2023-02-11T05:00:12.007Z,12.25
2023-02-11T05:02:40.357Z,13.40
2023-02-11T05:05:08.721Z,12.90
2023-02-11T05:07:36.903Z,12.90
2023-02-11T05:10:05.902Z,13.00
2023-02-11T05:12:34.196Z,12.00
2023-02-11T05:15:02.368Z,11.15
2023-02-11T05:17:30.499Z,12.77
2023-02-11T05:19:58.889Z,12.52
2023-02-11T05:22:27.070Z,10.80
2023-02-11T05:24:56.236Z,10.55
2023-02-11T05:27:27.140Z,11.68
2023-02-11T05:29:55.370Z,11.52
2023-02-11T05:32:23.842Z,11.80
2023-02-11T05:34:52.041Z,10.93
2023-02-11T05:37:20.272Z,10.55
2023-02-11T05:39:48.848Z,10.85
2023-02-11T05:42:17.060Z,10.15
2023-02-11T05:44:45.085Z,10.52
2023-02-11T05:47:13.337Z,10.93
2023-02-11T05:49:41.678Z,10.88
2023-02-11T05:52:10.069Z,11.27
2023-02-11T05:54:38.102Z,9.25
2023-02-11T05:57:06.272Z,10.40
2023-02-11T05:59:34.555Z,10.77
2023-02-11T06:02:02.993Z,10.45
2023-02-11T06:04:31.147Z,11.32
2023-02-11T06:06:59.428Z,10.55
2023-02-11T06:09:27.693Z,10.55
2023-02-11T06:11:55.827Z,10.05
2023-02-11T06:14:24.067Z,10.18
2023-02-11T06:16:52.258Z,9.82
2023-02-11T06:19:20.466Z,9.73
2023-02-11T06:21:48.692Z,10.77
2023-02-11T06:24:24.675Z,9.35
2023-02-11T06:27:06.237Z,10.18
2023-02-11T06:29:34.521Z,9.82
2023-02-11T06:32:02.859Z,9.15
2023-02-11T06:34:31.133Z,11.50
2023-02-11T06:36:59.291Z,9.57
2023-02-11T06:39:27.448Z,9.90
2023-02-11T06:41:55.736Z,9.40
2023-02-11T06:44:23.919Z,10.25
2023-02-11T06:46:52.117Z,9.55
2023-02-11T06:49:20.624Z,9.27
2023-02-11T06:51:48.780Z,9.55
2023-02-11T06:54:17.134Z,10.23
2023-02-11T06:56:45.260Z,9.65
2023-02-11T06:59:17.547Z,9.85
2023-02-11T07:01:46.016Z,9.93
2023-02-11T07:04:14.924Z,8.80
2023-02-11T07:06:43.407Z,10.00
2023-02-11T07:11:47.742Z,10.27
2023-02-11T07:14:18.687Z,10.77
2023-02-11T07:16:46.908Z,10.02
2023-02-11T07:19:15.097Z,10.93
2023-02-11T07:21:43.489Z,10.18
2023-02-11T07:24:11.871Z,10.90
2023-02-11T07:26:40.037Z,9.90
2023-02-11T07:29:08.427Z,9.05
2023-02-11T07:31:36.648Z,9.85
2023-02-11T07:34:05.099Z,11.57
2023-02-11T07:36:33.635Z,9.20
2023-02-11T07:39:01.802Z,10.52
2023-02-11T07:41:30.227Z,9.63
2023-02-11T07:43:58.421Z,10.68
2023-02-11T07:46:28.586Z,10.60
2023-02-11T07:48:57.043Z,11.32
2023-02-11T07:51:28.181Z,10.85
2023-02-11T07:54:00.912Z,11.65
2023-02-11T07:56:30.681Z,10.75
2023-02-11T07:59:02.296Z,12.00
2023-02-11T08:01:31.255Z,11.63
2023-02-11T08:04:01.396Z,12.55
2023-02-11T08:06:32.345Z,11.60
2023-02-11T08:09:08.870Z,13.43
2023-02-11T08:11:37.359Z,12.00
2023-02-11T08:14:05.704Z,12.25
2023-02-11T08:16:36.103Z,12.70
2023-02-11T08:19:07.378Z,10.45
2023-02-11T08:21:35.593Z,11.85
2023-02-11T08:24:04.562Z,10.70
2023-02-11T08:26:33.769Z,10.80
2023-02-11T08:29:03.493Z,10.93
2023-02-11T08:31:36.019Z,12.32
2023-02-11T08:34:04.620Z,12.27
2023-02-11T08:36:35.226Z,11.63
2023-02-11T08:39:18.542Z,10.57
2023-02-11T08:41:53.236Z,11.88
2023-02-11T08:44:22.670Z,11.70
2023-02-11T08:46:52.001Z,10.93
2023-02-11T08:49:20.766Z,12.05
2023-02-11T08:51:49.728Z,12.30
2023-02-11T08:54:18.301Z,12.55
2023-02-11T08:56:46.539Z,10.68
2023-02-11T08:59:16.135Z,11.07
2023-02-11T09:01:44.716Z,11.32
2023-02-11T09:04:13.334Z,10.45
2023-02-11T09:06:42.196Z,10.55
2023-02-11T09:09:13.659Z,10.65
2023-02-11T09:11:43.895Z,10.55
2023-02-11T09:14:22.209Z,10.70
2023-02-11T09:18:37.721Z,11.55
2023-02-11T09:21:08.895Z,10.65
2023-02-11T09:23:37.484Z,12.00
2023-02-11T09:26:09.805Z,10.07
2023-02-11T09:28:38.187Z,9.85
2023-02-11T09:31:11.764Z,11.00
2023-02-11T09:33:41.800Z,10.80
2023-02-11T09:36:10.240Z,9.00
2023-02-11T09:38:38.587Z,10.75
2023-02-11T09:41:06.916Z,9.70
2023-02-11T09:43:45.333Z,9.77
2023-02-11T09:46:16.916Z,9.85
2023-02-11T09:48:48.131Z,10.48
2023-02-11T09:51:52.926Z,10.80
2023-02-11T09:54:54.452Z,10.93
2023-02-11T10:00:28.625Z,9.75
2023-02-11T10:03:08.933Z,10.27
2023-02-11T10:05:47.905Z,11.23
2023-02-11T10:08:28.408Z,10.88
2023-02-11T10:11:31.322Z,11.63
2023-02-11T10:14:26.318Z,9.73
2023-02-11T10:17:13.686Z,10.43
2023-02-11T10:19:57.985Z,10.57
2023-02-11T10:22:42.246Z,11.88
2023-02-11T10:25:28.527Z,9.63
2023-02-11T10:28:00.060Z,11.25
2023-02-11T10:30:41.568Z,9.38
2023-02-11T10:33:37.245Z,9.80
2023-02-11T10:36:05.932Z,10.77
2023-02-11T10:41:02.252Z,9.73
2023-02-11T10:43:32.496Z,9.13
2023-02-11T10:46:03.844Z,9.05
2023-02-11T10:48:41.398Z,9.57
2023-02-11T10:51:30.155Z,9.10
2023-02-11T10:54:07.733Z,9.15
2023-02-11T10:56:50.928Z,7.97
2023-02-11T10:59:35.270Z,9.45
2023-02-11T11:02:26.208Z,8.43
2023-02-11T11:04:57.950Z,8.60
2023-02-11T11:07:29.164Z,9.25
2023-02-11T11:09:59.238Z,8.45
2023-02-11T11:12:34.223Z,8.68
2023-02-11T11:15:25.295Z,8.45
2023-02-11T11:18:24.333Z,8.30
2023-02-11T11:21:03.191Z,8.43
2023-02-11T11:23:32.238Z,9.45
2023-02-11T11:26:14.995Z,8.27
2023-02-11T11:28:56.631Z,8.13
2023-02-11T11:34:29.496Z,7.70
2023-02-11T11:36:59.749Z,7.20
2023-02-11T11:39:32.060Z,8.13
2023-02-11T11:42:05.228Z,8.50
2023-02-11T11:44:35.492Z,7.82
2023-02-11T11:47:12.662Z,8.32
2023-02-11T11:50:10.225Z,8.02
2023-02-11T11:52:53.573Z,7.37
2023-02-11T11:55:50.361Z,8.50
2023-02-11T11:58:50.979Z,7.03
2023-02-11T12:01:46.760Z,7.53
2023-02-11T12:04:21.878Z,7.20
2023-02-11T12:07:21.336Z,7.80
2023-02-11T12:10:27.721Z,7.18
2023-02-11T12:13:18.911Z,7.75
2023-02-11T12:16:13.858Z,7.75
2023-02-11T12:21:53.268Z,7.13
2023-02-11T12:24:33.835Z,6.50
2023-02-11T12:27:35.604Z,8.13
2023-02-11T12:30:33.074Z,7.28
2023-02-11T12:33:27.241Z,6.53
2023-02-11T12:35:55.529Z,7.00
2023-02-11T12:38:26.958Z,6.45
2023-02-11T12:41:05.066Z,7.15
2023-02-11T12:43:42.825Z,6.45
2023-02-11T12:46:26.169Z,6.57
2023-02-11T12:49:06.333Z,6.90
2023-02-11T12:51:41.780Z,7.35
2023-02-11T12:54:29.268Z,6.60
2023-02-11T12:57:02.951Z,7.60
2023-02-11T12:59:44.366Z,7.43
2023-02-11T13:02:42.315Z,7.50
2023-02-11T13:05:30.901Z,7.72
2023-02-11T13:08:32.150Z,7.88
2023-02-11T13:11:14.549Z,7.10
2023-02-11T13:14:01.142Z,7.25
2023-02-11T13:16:43.132Z,8.18
2023-02-11T13:19:14.613Z,7.18
2023-02-11T13:22:08.285Z,6.78
2023-02-11T13:24:58.506Z,7.30
2023-02-11T13:27:51.647Z,5.82
2023-02-11T13:30:32.872Z,6.85
2023-02-11T13:33:01.137Z,7.20
2023-02-11T13:35:29.370Z,6.32
2023-02-11T13:37:59.684Z,8.82
2023-02-11T13:40:37.965Z,7.85
2023-02-11T13:43:19.885Z,7.53
2023-02-11T13:45:50.678Z,8.90
2023-02-11T13:48:45.856Z,9.27
2023-02-11T13:51:18.165Z,8.63
2023-02-11T13:53:56.405Z,8.45
2023-02-11T13:56:34.256Z,8.98
2023-02-11T13:59:06.029Z,8.33
2023-02-11T14:02:02.478Z,8.63
2023-02-11T14:04:31.032Z,8.68
2023-02-11T14:07:33.975Z,8.85
2023-02-11T14:10:02.367Z,9.23
2023-02-11T14:16:37.958Z,9.32
2023-02-11T14:19:09.267Z,9.93
2023-02-11T14:21:44.813Z,9.63
2023-02-11T14:24:12.953Z,9.65
2023-02-11T14:27:05.594Z,10.35
2023-02-11T14:30:09.054Z,10.25
2023-02-11T14:32:40.415Z,9.18
2023-02-11T14:35:08.543Z,10.50
2023-02-11T14:37:56.561Z,9.95
2023-02-11T14:40:24.813Z,10.13
2023-02-11T14:42:54.848Z,10.10
2023-02-11T14:45:30.437Z,9.73
2023-02-11T14:48:28.153Z,10.30
2023-02-11T14:51:03.739Z,8.93
2023-02-11T14:53:34.225Z,8.73
2023-02-11T14:56:02.421Z,11.25
2023-02-11T14:58:32.974Z,9.95
2023-02-11T15:01:04.489Z,9.70
2023-02-11T15:03:34.169Z,10.38
2023-02-11T15:08:51.023Z,8.18
2023-02-11T15:11:21.592Z,8.55
2023-02-11T15:13:51.765Z,9.90
2023-02-11T15:16:25.494Z,10.75
2023-02-11T15:19:05.142Z,9.55
2023-02-11T15:21:36.451Z,8.27
2023-02-11T15:24:21.203Z,10.60
2023-02-11T15:27:12.831Z,9.32
2023-02-11T15:29:43.993Z,10.15
2023-02-11T15:32:16.450Z,9.60
2023-02-11T15:34:46.368Z,8.40
2023-02-11T15:37:21.980Z,9.13
2023-02-11T15:39:50.798Z,10.68
2023-02-11T15:44:52.288Z,9.05
2023-02-11T15:47:24.658Z,9.13
2023-02-11T15:49:53.009Z,8.45
2023-02-11T15:52:27.126Z,9.27
2023-02-11T15:54:58.710Z,9.02
2023-02-11T15:57:27.046Z,8.55
2023-02-11T15:59:56.337Z,8.55
2023-02-11T16:02:45.608Z,8.73
2023-02-11T16:05:26.412Z,8.43
2023-02-11T16:07:55.182Z,8.20
2023-02-11T16:13:08.866Z,8.45
2023-02-11T16:15:55.194Z,8.07
2023-02-11T16:18:31.024Z,8.52
2023-02-11T16:21:06.801Z,8.82
2023-02-11T16:23:40.339Z,8.82
2023-02-11T16:26:11.458Z,7.78
2023-02-11T16:28:40.603Z,8.32
2023-02-11T16:31:08.872Z,8.07
2023-02-11T16:33:37.137Z,6.93
2023-02-11T16:36:16.822Z,8.23
2023-02-11T16:38:45.247Z,8.43
2023-02-11T16:54:55.894Z,9.25
2023-02-11T16:57:28.816Z,8.95
2023-02-11T16:59:59.353Z,8.15
2023-02-11T17:02:30.719Z,9.02
2023-02-11T17:05:04.342Z,9.48
2023-02-11T17:07:32.665Z,8.05
2023-02-11T17:10:00.934Z,7.93
2023-02-11T17:12:29.325Z,8.20
2023-02-11T17:14:57.480Z,8.63
2023-02-11T17:17:25.703Z,8.40
2023-02-11T17:19:54.010Z,7.05
2023-02-11T17:22:22.167Z,7.90
2023-02-11T17:24:50.315Z,7.72
2023-02-11T17:27:18.647Z,8.15
2023-02-11T17:29:46.803Z,8.07
2023-02-11T17:32:15.337Z,7.55
2023-02-11T17:34:43.616Z,7.90
2023-02-11T17:37:11.827Z,7.82
2023-02-11T17:39:40.980Z,7.68
2023-02-11T17:42:09.315Z,6.93
2023-02-11T17:44:37.828Z,8.20
2023-02-11T17:47:05.915Z,7.28
2023-02-11T17:49:34.186Z,6.78
2023-02-11T17:52:02.776Z,7.45
2023-02-11T17:54:31.069Z,7.70
2023-02-11T17:56:59.396Z,7.57
2023-02-11T17:59:27.866Z,8.00
2023-02-11T18:01:56.037Z,6.70
2023-02-11T18:04:24.555Z,7.95
2023-02-11T18:06:52.751Z,6.93
2023-02-11T18:09:21.359Z,7.53
2023-02-11T18:11:49.657Z,6.75
2023-02-11T18:14:17.994Z,8.23
2023-02-11T18:16:46.511Z,6.50
2023-02-11T18:21:42.986Z,6.43
2023-02-11T18:24:11.297Z,6.55
2023-02-11T18:26:39.602Z,7.07
2023-02-11T18:29:08.005Z,6.68
2023-02-11T18:31:37.464Z,8.73
2023-02-11T18:34:07.126Z,7.32
2023-02-11T18:36:35.904Z,6.43
2023-02-11T18:41:32.657Z,7.25
2023-02-11T18:44:00.946Z,7.25
2023-02-11T18:46:29.819Z,7.10
2023-02-11T18:48:58.132Z,7.30
2023-02-11T18:51:26.432Z,6.57
2023-02-11T18:53:54.995Z,6.50
2023-02-11T18:56:25.012Z,6.88
2023-02-11T18:58:53.332Z,6.40
2023-02-11T19:01:24.941Z,6.20
2023-02-11T19:03:54.818Z,6.55
2023-02-11T19:06:26.032Z,6.45
2023-02-11T19:08:58.278Z,6.90
2023-02-11T19:11:29.454Z,7.28
2023-02-11T19:13:57.781Z,8.00
2023-02-11T19:16:26.192Z,6.82
2023-02-11T19:18:54.344Z,7.40
2023-02-11T19:21:22.686Z,7.15
2023-02-11T19:23:51.062Z,7.68
2023-02-11T19:26:23.675Z,6.60
2023-02-11T19:28:51.938Z,6.85
2023-02-11T19:31:20.438Z,6.45
2023-02-11T19:33:48.840Z,6.43
2023-02-11T19:36:17.132Z,6.80
2023-02-11T19:38:46.101Z,7.57
2023-02-11T19:41:14.927Z,6.47
2023-02-11T19:46:11.813Z,6.30
2023-02-11T19:48:40.078Z,7.95
2023-02-11T19:51:12.774Z,6.95
2023-02-11T19:53:41.957Z,7.32
2023-02-11T19:56:11.074Z,6.82
2023-02-11T19:58:40.890Z,8.18
2023-02-11T20:01:15.792Z,6.72
2023-02-11T20:03:44.364Z,8.00
2023-02-11T20:06:18.388Z,8.10
2023-02-11T20:08:46.637Z,7.97
2023-02-11T20:11:17.138Z,7.90
2023-02-11T20:13:46.363Z,8.02
2023-02-11T20:16:17.352Z,8.23
2023-02-11T20:18:46.543Z,9.13
2023-02-11T20:21:26.523Z,8.38
2023-02-11T20:23:55.425Z,7.63
2023-02-11T20:26:30.552Z,8.63
2023-02-11T20:29:00.389Z,8.23
2023-02-11T20:31:33.160Z,8.25
2023-02-11T20:34:02.373Z,9.02
2023-02-11T20:36:33.252Z,9.38
2023-02-11T20:39:02.482Z,8.60
2023-02-11T20:41:36.098Z,9.10
2023-02-11T20:44:07.352Z,9.30
2023-02-11T20:46:37.717Z,10.93
2023-02-11T20:49:06.322Z,9.82
2023-02-11T20:51:35.161Z,9.60
2023-02-11T20:54:03.981Z,9.73
2023-02-11T20:56:35.102Z,10.05
2023-02-11T20:59:04.267Z,9.93
2023-02-11T21:01:41.369Z,10.45
2023-02-11T21:04:22.099Z,9.32
2023-02-11T21:06:52.696Z,8.32
2023-02-11T21:09:24.777Z,9.75
2023-02-11T21:11:54.279Z,8.80
2023-02-11T21:14:24.885Z,10.18
2023-02-11T21:16:53.383Z,10.88
2023-02-11T21:19:21.994Z,10.95
2023-02-11T21:21:50.367Z,8.88
2023-02-11T21:24:18.843Z,10.50
2023-02-11T21:26:47.269Z,10.13
2023-02-11T21:29:15.521Z,9.85
2023-02-11T21:31:43.909Z,11.30
2023-02-11T21:34:12.379Z,10.05
2023-02-11T21:36:40.584Z,9.55
2023-02-11T21:39:09.001Z,9.90
2023-02-11T21:41:37.369Z,10.60
2023-02-11T21:44:05.910Z,9.80
2023-02-11T21:46:34.223Z,10.77
2023-02-11T21:49:02.786Z,9.55
2023-02-11T21:51:31.219Z,10.65
2023-02-11T21:54:01.846Z,9.77
2023-02-11T21:56:32.431Z,9.63
2023-02-11T21:59:02.784Z,9.95
2023-02-11T22:01:33.376Z,9.68
2023-02-11T22:04:01.838Z,9.93
2023-02-11T22:06:33.484Z,9.75
2023-02-11T22:09:09.707Z,10.60
2023-02-11T22:11:38.133Z,11.75
2023-02-11T22:14:06.336Z,9.90
2023-02-11T22:16:35.016Z,10.50
2023-02-11T22:19:03.545Z,11.45
2023-02-11T22:21:31.992Z,10.95
2023-02-11T22:24:00.519Z,9.60
2023-02-11T22:26:29.465Z,10.68
2023-02-11T22:28:57.956Z,12.00
2023-02-11T22:31:30.356Z,11.48
2023-02-11T22:33:59.472Z,10.48
2023-02-11T22:36:36.902Z,10.55
2023-02-11T22:39:07.891Z,10.77
2023-02-11T22:41:36.476Z,10.60
2023-02-11T22:44:05.092Z,11.38
2023-02-11T22:49:01.531Z,11.55
2023-02-11T22:51:31.236Z,11.43
2023-02-11T22:54:02.120Z,10.43
2023-02-11T22:56:32.404Z,10.98
2023-02-11T22:59:03.135Z,10.30
2023-02-11T23:01:31.728Z,9.48
2023-02-11T23:04:04.779Z,11.55
2023-02-11T23:06:33.078Z,10.68
2023-02-11T23:09:01.776Z,10.82
2023-02-11T23:11:31.618Z,11.15
2023-02-11T23:14:01.321Z,11.88
2023-02-11T23:18:32.154Z,10.80
2023-02-11T23:21:05.798Z,10.68
2023-02-11T23:23:34.917Z,10.98
2023-02-11T23:26:04.121Z,11.35
2023-02-11T23:28:32.758Z,11.23
2023-02-11T23:31:01.104Z,12.02
2023-02-11T23:33:29.474Z,11.68
2023-02-11T23:35:57.734Z,11.25
2023-02-11T23:38:26.178Z,10.70
2023-02-11T23:40:54.261Z,11.68
2023-02-11T23:43:24.358Z,9.65
2023-02-11T23:45:53.115Z,10.73
2023-02-11T23:48:21.556Z,11.50
2023-02-11T23:50:49.910Z,10.32
2023-02-11T23:53:18.333Z,11.55
2023-02-11T23:55:47.685Z,11.15
2023-02-11T23:58:16.581Z,10.20
